createdAt,value
2023-09-05T00:01:28.019Z,22.16
2023-09-05T00:03:54.580Z,22.16
2023-09-05T00:06:20.910Z,22.15
2023-09-05T00:08:47.171Z,22.15
2023-09-05T00:11:13.458Z,22.13
2023-09-05T00:13:39.767Z,22.13
2023-09-05T00:16:07.626Z,22.12
2023-09-05T00:18:33.932Z,22.12
2023-09-05T00:21:00.273Z,22.10
2023-09-05T00:23:26.746Z,22.08
2023-09-05T00:25:53.266Z,22.07
2023-09-05T00:28:19.557Z,22.07
2023-09-05T00:30:45.887Z,22.06
2023-09-05T00:33:12.152Z,22.05
2023-09-05T00:35:38.478Z,22.05
2023-09-05T00:38:04.717Z,22.04
2023-09-05T00:40:31.328Z,22.02
2023-09-05T00:42:57.638Z,22.01
2023-09-05T00:45:23.932Z,22.00
2023-09-05T00:47:50.290Z,21.99
2023-09-05T00:50:16.624Z,21.97
2023-09-05T00:52:42.898Z,21.96
2023-09-05T00:55:09.193Z,21.95
2023-09-05T00:57:35.466Z,21.94
2023-09-05T01:00:01.910Z,21.92
2023-09-05T01:02:28.188Z,21.91
2023-09-05T01:04:54.453Z,21.90
2023-09-05T01:07:20.769Z,21.89
2023-09-05T01:09:47.038Z,21.87
2023-09-05T01:12:13.359Z,21.87
2023-09-05T01:14:39.655Z,21.85
2023-09-05T01:17:06.104Z,21.85
2023-09-05T01:19:32.388Z,21.84
2023-09-05T01:21:58.676Z,21.83
2023-09-05T01:24:25.139Z,21.82
2023-09-05T01:26:51.515Z,21.81
2023-09-05T01:29:17.907Z,21.79
2023-09-05T01:31:44.219Z,21.79
2023-09-05T01:34:12.744Z,21.78
2023-09-05T01:36:41.936Z,21.76
2023-09-05T01:39:08.395Z,21.74
2023-09-05T01:41:34.717Z,21.72
2023-09-05T01:44:05.809Z,21.72
2023-09-05T01:46:34.159Z,21.71
2023-09-05T01:49:00.654Z,21.69
2023-09-05T01:51:26.988Z,21.69
2023-09-05T01:53:53.283Z,21.69
2023-09-05T01:56:19.597Z,21.68
2023-09-05T01:58:45.873Z,21.69
2023-09-05T02:01:12.243Z,21.69
2023-09-05T02:03:38.628Z,21.67
2023-09-05T02:06:04.889Z,21.67
2023-09-05T02:08:31.198Z,21.67
2023-09-05T02:10:57.478Z,21.65
2023-09-05T02:13:24.061Z,21.64
2023-09-05T02:15:50.820Z,21.64
2023-09-05T02:18:17.162Z,21.63
2023-09-05T02:20:43.471Z,21.61
2023-09-05T02:23:09.835Z,21.61
2023-09-05T02:25:36.156Z,21.60
2023-09-05T02:28:02.446Z,21.59
2023-09-05T02:30:28.720Z,21.59
2023-09-05T02:32:55.111Z,21.57
2023-09-05T02:35:21.779Z,21.56
2023-09-05T02:37:48.252Z,21.56
2023-09-05T02:40:14.543Z,21.54
2023-09-05T02:42:43.067Z,21.54
2023-09-05T02:45:09.399Z,21.52
2023-09-05T02:47:35.744Z,21.50
2023-09-05T02:50:02.044Z,21.49
2023-09-05T02:52:34.428Z,21.48
2023-09-05T02:55:12.001Z,21.46
2023-09-05T02:57:38.282Z,21.46
2023-09-05T03:00:04.602Z,21.44
2023-09-05T03:02:30.919Z,21.44
2023-09-05T03:04:57.249Z,21.45
2023-09-05T03:07:23.564Z,21.43
2023-09-05T03:09:49.839Z,21.43
2023-09-05T03:12:16.163Z,21.43
2023-09-05T03:14:42.470Z,21.42
2023-09-05T03:17:08.791Z,21.40
2023-09-05T03:19:35.071Z,21.39
2023-09-05T03:22:01.362Z,21.37
2023-09-05T03:24:29.772Z,21.36
2023-09-05T03:26:56.278Z,21.35
2023-09-05T03:29:22.687Z,21.34
2023-09-05T03:31:49.048Z,21.31
2023-09-05T03:34:15.485Z,21.30
2023-09-05T03:36:41.814Z,21.28
2023-09-05T03:39:08.080Z,21.27
2023-09-05T03:41:34.400Z,21.24
2023-09-05T03:44:00.696Z,21.23
2023-09-05T03:46:27.001Z,21.22
2023-09-05T03:48:53.615Z,21.21
2023-09-05T03:51:20.032Z,21.20
2023-09-05T03:53:46.334Z,21.18
2023-09-05T03:56:12.752Z,21.17
2023-09-05T03:58:39.157Z,21.16
2023-09-05T04:01:05.592Z,21.16
2023-09-05T04:03:32.031Z,21.15
2023-09-05T04:05:58.442Z,21.13
2023-09-05T04:08:24.966Z,21.13
2023-09-05T04:10:51.476Z,21.11
2023-09-05T04:13:17.804Z,21.12
2023-09-05T04:15:44.269Z,21.09
2023-09-05T04:18:10.699Z,21.08
2023-09-05T04:20:37.108Z,21.08
2023-09-05T04:23:05.900Z,21.06
2023-09-05T04:25:32.206Z,21.04
2023-09-05T04:27:58.553Z,21.04
2023-09-05T04:30:24.831Z,21.01
2023-09-05T04:32:51.165Z,21.01
2023-09-05T04:35:17.451Z,20.99
2023-09-05T04:37:46.796Z,20.99
2023-09-05T04:40:13.068Z,20.98
2023-09-05T04:42:39.372Z,20.96
2023-09-05T04:45:05.660Z,20.95
2023-09-05T04:47:32.079Z,20.95
2023-09-05T04:49:58.364Z,20.94
2023-09-05T04:52:24.650Z,20.98
2023-09-05T04:54:51.034Z,21.07
2023-09-05T04:57:17.359Z,21.16
2023-09-05T04:59:43.733Z,21.26
2023-09-05T05:02:10.083Z,21.33
2023-09-05T05:04:36.344Z,21.37
2023-09-05T05:07:02.705Z,21.43
2023-09-05T05:09:29.010Z,21.54
2023-09-05T05:11:55.371Z,21.62
2023-09-05T05:14:21.807Z,21.63
2023-09-05T05:16:48.336Z,21.71
2023-09-05T05:19:14.727Z,21.88
2023-09-05T05:21:44.147Z,22.01
2023-09-05T05:24:10.446Z,22.11
2023-09-05T05:26:36.751Z,22.14
2023-09-05T05:29:03.316Z,22.24
2023-09-05T05:31:29.653Z,22.39
2023-09-05T05:33:56.043Z,22.47
2023-09-05T05:36:22.374Z,22.44
2023-09-05T05:38:48.638Z,22.47
2023-09-05T05:41:14.893Z,22.58
2023-09-05T05:43:41.249Z,22.72
2023-09-05T05:46:07.607Z,22.84
2023-09-05T05:48:33.922Z,23.03
2023-09-05T05:51:00.264Z,23.18
2023-09-05T05:53:26.526Z,23.32
2023-09-05T05:55:52.975Z,23.45
2023-09-05T05:58:19.275Z,23.56
2023-09-05T06:00:45.528Z,23.69
2023-09-05T06:03:11.906Z,23.82
2023-09-05T06:05:38.227Z,23.95
2023-09-05T06:08:04.589Z,24.06
2023-09-05T06:10:30.856Z,24.19
2023-09-05T06:12:57.211Z,24.30
2023-09-05T06:15:23.581Z,24.40
2023-09-05T06:17:49.995Z,24.48
2023-09-05T06:20:16.402Z,24.59
2023-09-05T06:22:42.824Z,24.69
2023-09-05T06:25:09.201Z,24.80
2023-09-05T06:27:35.546Z,24.90
2023-09-05T06:30:01.945Z,25.03
2023-09-05T06:32:28.294Z,25.07
2023-09-05T06:34:54.669Z,25.15
2023-09-05T06:37:20.954Z,25.30
2023-09-05T06:39:47.359Z,25.42
2023-09-05T06:42:13.722Z,25.51
2023-09-05T06:44:40.095Z,25.60
2023-09-05T06:47:06.445Z,25.73
2023-09-05T06:49:32.784Z,25.82
2023-09-05T06:51:59.153Z,25.92
2023-09-05T06:54:25.561Z,26.04
2023-09-05T06:56:51.889Z,26.12
2023-09-05T06:59:18.195Z,26.22
2023-09-05T07:01:44.540Z,26.34
2023-09-05T07:04:10.919Z,26.45
2023-09-05T07:06:37.319Z,26.57
2023-09-05T07:09:03.720Z,26.70
2023-09-05T07:11:30.067Z,26.80
2023-09-05T07:13:56.381Z,26.92
2023-09-05T07:16:22.726Z,27.04
2023-09-05T07:18:49.534Z,27.14
2023-09-05T07:21:15.856Z,27.25
2023-09-05T07:23:45.421Z,27.37
2023-09-05T07:26:11.804Z,27.47
2023-09-05T07:28:38.118Z,27.57
2023-09-05T07:31:04.497Z,27.66
2023-09-05T07:33:30.877Z,27.77
2023-09-05T07:35:58.217Z,27.87
2023-09-05T07:38:26.254Z,27.96
2023-09-05T07:40:52.759Z,28.05
2023-09-05T07:43:19.057Z,28.11
2023-09-05T07:45:45.341Z,28.17
2023-09-05T07:48:11.776Z,28.20
2023-09-05T07:50:38.218Z,28.26
2023-09-05T07:55:34.846Z,28.49
2023-09-05T07:58:01.494Z,28.62
2023-09-05T08:00:28.092Z,28.74
2023-09-05T08:02:54.389Z,28.87
2023-09-05T08:05:20.735Z,29.02
2023-09-05T08:07:47.106Z,29.10
2023-09-05T08:10:13.390Z,29.17
2023-09-05T08:12:39.839Z,29.24
2023-09-05T08:15:06.150Z,29.34
2023-09-05T08:17:32.493Z,29.45
2023-09-05T08:19:58.870Z,29.58
2023-09-05T08:22:25.137Z,29.76
2023-09-05T08:24:51.471Z,29.97
2023-09-05T08:27:17.821Z,30.19
2023-09-05T08:29:44.138Z,30.38
2023-09-05T08:32:10.692Z,30.59
2023-09-05T08:34:37.171Z,30.78
2023-09-05T08:37:03.474Z,30.91
2023-09-05T08:39:29.773Z,30.96
2023-09-05T08:41:56.394Z,30.92
2023-09-05T08:44:23.857Z,31.07
2023-09-05T08:46:50.174Z,31.27
2023-09-05T08:49:16.562Z,31.37
2023-09-05T08:51:42.904Z,31.44
2023-09-05T08:54:09.424Z,31.46
2023-09-05T08:56:35.924Z,31.44
2023-09-05T08:59:02.253Z,31.38
2023-09-05T09:01:28.630Z,31.31
2023-09-05T09:03:54.944Z,31.18
2023-09-05T09:06:21.308Z,31.03
2023-09-05T09:08:47.651Z,30.81
2023-09-05T09:11:14.005Z,30.50
2023-09-05T09:13:40.363Z,30.08
2023-09-05T09:16:07.785Z,29.46
2023-09-05T09:18:34.090Z,29.09
2023-09-05T09:21:00.375Z,28.89
2023-09-05T09:26:11.326Z,28.63
2023-09-05T09:28:37.626Z,28.58
2023-09-05T09:31:04.158Z,28.53
2023-09-05T09:33:33.085Z,28.47
2023-09-05T09:35:59.736Z,28.42
2023-09-05T09:38:26.256Z,28.37
2023-09-05T09:40:52.675Z,28.33
2023-09-05T09:43:18.975Z,28.29
2023-09-05T09:45:45.321Z,28.26
2023-09-05T09:48:14.701Z,28.24
2023-09-05T09:51:08.391Z,28.24
2023-09-05T09:53:28.270Z,28.23
2023-09-05T09:55:54.562Z,28.22
2023-09-05T09:58:20.866Z,28.20
2023-09-05T10:00:47.243Z,28.21
2023-09-05T10:03:13.620Z,28.19
2023-09-05T10:05:39.961Z,28.18
2023-09-05T10:08:06.630Z,28.18
2023-09-05T10:10:32.944Z,28.17
2023-09-05T10:12:59.336Z,28.17
2023-09-05T10:15:25.906Z,28.17
2023-09-05T10:17:52.326Z,28.17
2023-09-05T10:20:19.884Z,28.19
2023-09-05T10:22:47.265Z,28.19
2023-09-05T10:25:13.578Z,28.20
2023-09-05T10:27:39.886Z,28.19
2023-09-05T10:30:06.200Z,28.20
2023-09-05T10:32:32.521Z,28.22
2023-09-05T10:34:58.868Z,28.22
2023-09-05T10:37:25.184Z,28.22
2023-09-05T10:39:54.651Z,28.24
2023-09-05T10:42:20.978Z,28.25
2023-09-05T10:44:47.359Z,28.26
2023-09-05T10:47:13.713Z,28.27
2023-09-05T10:49:40.070Z,28.29
2023-09-05T10:52:06.390Z,28.30
2023-09-05T10:54:32.702Z,28.30
2023-09-05T10:56:58.998Z,28.31
2023-09-05T10:59:25.305Z,28.31
2023-09-05T11:01:51.671Z,28.32
2023-09-05T11:04:18.034Z,28.31
2023-09-05T11:06:44.343Z,28.32
2023-09-05T11:09:10.714Z,28.31
2023-09-05T11:11:37.061Z,28.32
2023-09-05T11:14:03.531Z,28.31
2023-09-05T11:16:30.069Z,28.32
2023-09-05T11:18:56.385Z,28.28
2023-09-05T11:21:22.814Z,28.25
2023-09-05T11:23:49.134Z,28.24
2023-09-05T11:26:15.464Z,28.23
2023-09-05T11:28:41.776Z,28.24
2023-09-05T11:31:08.107Z,28.24
2023-09-05T11:33:34.449Z,28.23
2023-09-05T11:36:00.826Z,28.22
2023-09-05T11:38:27.371Z,28.22
2023-09-05T11:40:56.107Z,28.22
2023-09-05T11:43:22.986Z,28.20
2023-09-05T11:45:49.407Z,28.20
2023-09-05T11:48:15.784Z,28.20
2023-09-05T11:50:42.203Z,28.22
2023-09-05T11:55:38.577Z,28.21
2023-09-05T11:58:06.769Z,28.20
2023-09-05T12:00:34.218Z,28.19
2023-09-05T12:03:00.691Z,28.20
2023-09-05T12:05:27.096Z,28.19
2023-09-05T12:07:53.487Z,28.19
2023-09-05T12:10:19.905Z,28.18
2023-09-05T12:12:46.233Z,28.20
2023-09-05T12:15:12.606Z,28.19
2023-09-05T12:17:38.908Z,28.19
2023-09-05T12:20:05.178Z,28.20
2023-09-05T12:22:31.536Z,28.19
2023-09-05T12:25:08.700Z,28.19
2023-09-05T12:27:36.080Z,28.20
2023-09-05T12:30:02.471Z,28.19
2023-09-05T12:32:28.803Z,28.21
2023-09-05T12:34:55.231Z,28.21
2023-09-05T12:37:21.572Z,28.21
2023-09-05T12:39:48.003Z,28.21
2023-09-05T12:42:14.439Z,28.20
2023-09-05T12:44:40.799Z,28.22
2023-09-05T12:47:07.085Z,28.22
2023-09-05T12:49:33.370Z,28.22
2023-09-05T12:51:59.720Z,28.22
2023-09-05T12:54:26.036Z,28.23
2023-09-05T12:56:52.445Z,28.22
2023-09-05T12:59:18.743Z,28.21
2023-09-05T13:01:45.006Z,28.19
2023-09-05T13:06:57.187Z,28.18
2023-09-05T13:09:24.996Z,28.15
2023-09-05T13:11:51.320Z,28.14
2023-09-05T13:14:17.732Z,28.13
2023-09-05T13:16:44.025Z,28.12
2023-09-05T13:19:10.304Z,28.10
2023-09-05T13:21:36.623Z,28.08
2023-09-05T13:24:03.126Z,28.08
2023-09-05T13:26:29.527Z,28.06
2023-09-05T13:28:56.022Z,28.07
2023-09-05T13:31:22.530Z,28.05
2023-09-05T13:33:48.975Z,28.03
2023-09-05T13:36:15.347Z,28.02
2023-09-05T13:38:41.665Z,28.01
2023-09-05T13:41:07.960Z,27.99
2023-09-05T13:43:34.311Z,27.98
2023-09-05T13:46:00.729Z,27.96
2023-09-05T13:48:27.370Z,27.96
2023-09-05T13:50:53.949Z,27.94
2023-09-05T13:53:20.351Z,27.95
2023-09-05T13:55:49.694Z,27.94
2023-09-05T13:58:15.995Z,27.93
2023-09-05T14:00:42.329Z,27.92
2023-09-05T14:03:08.725Z,27.91
2023-09-05T14:05:35.159Z,27.90
2023-09-05T14:08:01.623Z,27.88
2023-09-05T14:10:27.957Z,27.88
2023-09-05T14:12:54.265Z,27.86
2023-09-05T14:15:20.636Z,27.87
2023-09-05T14:17:47.859Z,27.84
2023-09-05T14:20:14.168Z,27.83
2023-09-05T14:22:40.537Z,27.82
2023-09-05T14:25:06.880Z,27.81
2023-09-05T14:27:33.332Z,27.80
2023-09-05T14:29:59.706Z,27.79
2023-09-05T14:32:26.016Z,27.78
2023-09-05T14:34:52.311Z,27.77
2023-09-05T14:37:18.651Z,27.76
2023-09-05T14:39:45.049Z,27.73
2023-09-05T14:42:11.526Z,27.72
2023-09-05T14:44:37.851Z,27.72
2023-09-05T14:47:04.168Z,27.70
2023-09-05T14:49:30.516Z,27.71
2023-09-05T14:51:56.802Z,27.70
2023-09-05T14:54:23.267Z,27.69
2023-09-05T14:56:49.717Z,27.67
2023-09-05T14:59:16.100Z,27.67
2023-09-05T15:01:42.416Z,27.65
2023-09-05T15:04:08.810Z,27.65
2023-09-05T15:06:35.184Z,27.63
2023-09-05T15:09:01.564Z,27.64
2023-09-05T15:11:27.821Z,27.62
2023-09-05T15:13:54.105Z,27.61
2023-09-05T15:16:20.447Z,27.61
2023-09-05T15:18:46.877Z,27.58
2023-09-05T15:21:13.498Z,27.58
2023-09-05T15:23:42.234Z,27.57
2023-09-05T15:26:08.635Z,27.56
2023-09-05T15:28:34.914Z,27.54
2023-09-05T15:31:01.229Z,27.53
2023-09-05T15:33:27.634Z,27.52
2023-09-05T15:35:54.061Z,27.51
2023-09-05T15:38:20.488Z,27.51
2023-09-05T15:40:46.832Z,27.50
2023-09-05T15:43:13.172Z,27.50
2023-09-05T15:45:39.566Z,27.49
2023-09-05T15:48:05.985Z,27.50
2023-09-05T15:50:32.302Z,27.48
2023-09-05T15:52:58.553Z,27.48
2023-09-05T15:55:24.829Z,27.47
2023-09-05T15:57:51.215Z,27.46
2023-09-05T16:00:18.230Z,27.45
2023-09-05T16:02:46.079Z,27.43
2023-09-05T16:05:12.394Z,27.44
2023-09-05T16:07:38.745Z,27.43
2023-09-05T16:10:06.943Z,27.41
2023-09-05T16:12:33.770Z,27.40
2023-09-05T16:15:00.121Z,27.40
2023-09-05T16:17:26.870Z,27.38
2023-09-05T16:19:53.227Z,27.37
2023-09-05T16:22:19.586Z,27.36
2023-09-05T16:24:45.942Z,27.35
2023-09-05T16:27:12.347Z,27.33
2023-09-05T16:29:38.664Z,27.32
2023-09-05T16:32:04.953Z,27.30
2023-09-05T16:34:31.235Z,27.28
2023-09-05T16:36:57.531Z,27.27
2023-09-05T16:39:23.866Z,27.26
2023-09-05T16:41:50.186Z,27.25
2023-09-05T16:44:16.485Z,27.23
2023-09-05T16:46:42.797Z,27.21
2023-09-05T16:49:09.226Z,27.20
2023-09-05T16:51:35.721Z,27.18
2023-09-05T16:54:02.033Z,27.16
2023-09-05T16:56:28.319Z,27.16
2023-09-05T16:58:54.615Z,27.14
2023-09-05T17:01:20.980Z,27.12
2023-09-05T17:03:47.417Z,27.11
2023-09-05T17:06:13.826Z,27.09
2023-09-05T17:08:40.148Z,27.08
2023-09-05T17:11:06.558Z,27.05
2023-09-05T17:13:32.907Z,27.04
2023-09-05T17:15:59.297Z,27.02
2023-09-05T17:18:25.946Z,27.01
2023-09-05T17:20:52.482Z,26.98
2023-09-05T17:23:19.813Z,26.97
2023-09-05T17:25:46.076Z,26.95
2023-09-05T17:28:12.494Z,26.91
2023-09-05T17:30:38.999Z,26.89
2023-09-05T17:33:05.396Z,26.88
2023-09-05T17:35:31.779Z,26.86
2023-09-05T17:37:58.152Z,26.84
2023-09-05T17:40:24.462Z,26.81
2023-09-05T17:42:51.974Z,26.80
2023-09-05T17:45:18.318Z,26.77
2023-09-05T17:47:44.682Z,26.75
2023-09-05T17:50:11.204Z,26.73
2023-09-05T17:52:37.526Z,26.71
2023-09-05T17:55:03.850Z,26.68
2023-09-05T17:57:30.296Z,26.67
2023-09-05T17:59:56.712Z,26.64
2023-09-05T18:02:23.044Z,26.62
2023-09-05T18:04:49.404Z,26.60
2023-09-05T18:07:15.770Z,26.58
2023-09-05T18:09:42.193Z,26.56
2023-09-05T18:12:08.515Z,26.53
2023-09-05T18:14:34.803Z,26.47
2023-09-05T18:17:01.170Z,26.39
2023-09-05T18:19:28.411Z,26.35
2023-09-05T18:21:54.869Z,26.28
2023-09-05T18:24:21.244Z,26.20
2023-09-05T18:26:47.532Z,26.12
2023-09-05T18:29:13.862Z,26.06
2023-09-05T18:31:40.277Z,25.98
2023-09-05T18:34:06.589Z,25.92
2023-09-05T18:36:33.169Z,25.87
2023-09-05T18:38:59.558Z,25.80
2023-09-05T18:41:25.860Z,25.76
2023-09-05T18:43:52.194Z,25.71
2023-09-05T18:46:18.575Z,25.66
2023-09-05T18:48:45.446Z,25.61
2023-09-05T18:51:11.954Z,25.55
2023-09-05T18:53:38.309Z,25.50
2023-09-05T18:56:04.641Z,25.46
2023-09-05T18:58:30.959Z,25.44
2023-09-05T19:00:57.329Z,25.42
2023-09-05T19:03:23.877Z,25.40
2023-09-05T19:05:50.321Z,25.37
2023-09-05T19:08:16.610Z,25.34
2023-09-05T19:10:42.928Z,25.30
2023-09-05T19:13:09.225Z,25.31
2023-09-05T19:15:35.672Z,25.33
2023-09-05T19:18:02.144Z,25.34
2023-09-05T19:20:28.507Z,25.35
2023-09-05T19:22:54.786Z,25.35
2023-09-05T19:25:23.908Z,25.35
2023-09-05T19:27:50.258Z,25.35
2023-09-05T19:30:16.618Z,25.34
2023-09-05T19:32:42.990Z,25.33
2023-09-05T19:35:09.374Z,25.31
2023-09-05T19:37:35.685Z,25.29
2023-09-05T19:40:01.996Z,25.28
2023-09-05T19:42:28.380Z,25.26
2023-09-05T19:44:54.847Z,25.25
2023-09-05T19:47:21.193Z,25.24
2023-09-05T19:49:47.480Z,25.24
2023-09-05T19:52:13.853Z,25.22
2023-09-05T19:54:40.192Z,25.21
2023-09-05T19:57:06.705Z,25.20
2023-09-05T19:59:33.084Z,25.19
2023-09-05T20:01:59.484Z,25.18
2023-09-05T20:04:27.043Z,25.16
2023-09-05T20:06:53.468Z,25.14
2023-09-05T20:09:19.927Z,25.12
2023-09-05T20:11:46.265Z,25.12
2023-09-05T20:14:12.624Z,25.09
2023-09-05T20:16:38.983Z,25.07
2023-09-05T20:19:05.452Z,25.06
2023-09-05T20:21:31.903Z,25.03
2023-09-05T20:23:58.352Z,25.02
2023-09-05T20:26:24.659Z,25.01
2023-09-05T20:28:50.955Z,24.98
2023-09-05T20:31:17.341Z,24.97
2023-09-05T20:33:43.846Z,24.95
2023-09-05T20:36:10.217Z,24.93
2023-09-05T20:38:36.513Z,24.92
2023-09-05T20:41:02.847Z,24.91
2023-09-05T20:43:29.223Z,24.89
2023-09-05T20:45:55.572Z,24.88
2023-09-05T20:48:22.140Z,24.87
2023-09-05T20:50:48.643Z,24.85
2023-09-05T20:53:14.956Z,24.84
2023-09-05T20:55:41.306Z,24.83
2023-09-05T20:58:07.695Z,24.81
2023-09-05T21:00:34.125Z,24.80
2023-09-05T21:03:00.758Z,24.79
2023-09-05T21:05:27.253Z,24.76
2023-09-05T21:07:53.706Z,24.70
2023-09-05T21:10:20.628Z,24.62
2023-09-05T21:12:47.012Z,24.55
2023-09-05T21:15:13.488Z,24.49
2023-09-05T21:17:39.906Z,24.43
2023-09-05T21:20:06.271Z,24.39
2023-09-05T21:22:32.583Z,24.36
2023-09-05T21:24:59.018Z,24.31
2023-09-05T21:27:28.696Z,24.26
2023-09-05T21:29:55.052Z,24.20
2023-09-05T21:32:21.439Z,24.15
2023-09-05T21:34:47.734Z,24.11
2023-09-05T21:37:14.128Z,24.06
2023-09-05T21:39:40.575Z,24.03
2023-09-05T21:42:07.541Z,23.98
2023-09-05T21:44:33.925Z,23.94
2023-09-05T21:47:00.481Z,23.89
2023-09-05T21:49:26.938Z,23.86
2023-09-05T21:51:53.435Z,23.83
2023-09-05T21:54:20.058Z,23.81
2023-09-05T21:56:46.467Z,23.77
2023-09-05T21:59:12.955Z,23.75
2023-09-05T22:01:39.458Z,23.71
2023-09-05T22:04:06.039Z,23.68
2023-09-05T22:06:32.384Z,23.64
2023-09-05T22:08:58.840Z,23.60
2023-09-05T22:11:25.190Z,23.55
2023-09-05T22:13:51.600Z,23.51
2023-09-05T22:16:18.001Z,23.48
2023-09-05T22:18:44.354Z,23.43
2023-09-05T22:21:10.759Z,23.40
2023-09-05T22:23:37.372Z,23.36
2023-09-05T22:26:03.788Z,23.34
2023-09-05T22:28:33.298Z,23.31
2023-09-05T22:31:00.189Z,23.28
2023-09-05T22:33:27.333Z,23.25
2023-09-05T22:35:53.781Z,23.21
2023-09-05T22:38:20.129Z,23.17
2023-09-05T22:40:46.495Z,23.13
2023-09-05T22:43:12.811Z,23.10
2023-09-05T22:45:39.296Z,23.05
2023-09-05T22:48:05.762Z,23.00
2023-09-05T22:50:32.136Z,22.96
2023-09-05T22:52:58.509Z,22.93
2023-09-05T22:55:24.814Z,22.91
2023-09-05T22:57:51.505Z,22.88
2023-09-05T23:00:18.304Z,22.84
2023-09-05T23:02:44.790Z,22.80
2023-09-05T23:05:11.148Z,22.75
2023-09-05T23:07:37.465Z,22.70
2023-09-05T23:10:03.909Z,22.66
2023-09-05T23:12:30.283Z,22.64
2023-09-05T23:14:56.623Z,22.60
2023-09-05T23:17:23.046Z,22.58
2023-09-05T23:19:49.446Z,22.57
2023-09-05T23:22:15.783Z,22.53
2023-09-05T23:24:42.130Z,22.50
2023-09-05T23:27:08.508Z,22.48
2023-09-05T23:29:34.844Z,22.46
2023-09-05T23:32:01.256Z,22.43
2023-09-05T23:34:27.591Z,22.42
2023-09-05T23:36:53.957Z,22.39
2023-09-05T23:39:21.882Z,22.37
2023-09-05T23:41:48.362Z,22.34
2023-09-05T23:44:15.917Z,22.33
2023-09-05T23:46:42.349Z,22.32
2023-09-05T23:49:08.794Z,22.31
2023-09-05T23:51:35.312Z,22.30
2023-09-05T23:54:03.773Z,22.28
2023-09-05T23:56:30.129Z,22.27
2023-09-05T23:58:56.464Z,22.25
